createdAt,value
2023-01-24T00:01:24.553Z,103703.53
2023-01-24T00:03:52.102Z,103699.09
2023-01-24T00:06:19.842Z,103700.81
2023-01-24T00:08:47.280Z,103698.19
2023-01-24T00:11:15.233Z,103703.50
2023-01-24T00:13:42.679Z,103695.69
2023-01-24T00:16:20.498Z,103694.94
2023-01-24T00:18:49.892Z,103691.38
2023-01-24T00:21:22.486Z,103696.56
2023-01-24T00:23:55.483Z,103683.66
2023-01-24T00:26:25.974Z,103687.13
2023-01-24T00:28:53.761Z,103683.72
2023-01-24T00:31:22.170Z,103679.34
2023-01-24T00:33:49.843Z,103680.31
2023-01-24T00:36:17.930Z,103692.44
2023-01-24T00:38:45.550Z,103684.63
2023-01-24T00:41:13.102Z,103684.63
2023-01-24T00:43:40.695Z,103682.91
2023-01-24T00:46:10.086Z,103685.50
2023-01-24T00:48:37.827Z,103666.56
2023-01-24T00:51:05.838Z,103664.03
2023-01-24T00:53:33.655Z,103670.88
2023-01-24T00:56:01.578Z,103668.94
2023-01-24T00:58:29.375Z,103670.56
2023-01-24T01:00:59.310Z,103666.25
2023-01-24T01:03:27.410Z,103667.00
2023-01-24T01:06:00.720Z,103665.22
2023-01-24T01:08:28.886Z,103663.44
2023-01-24T01:10:56.610Z,103663.44
2023-01-24T01:13:25.014Z,103661.63
2023-01-24T01:15:52.614Z,103656.44
2023-01-24T01:18:20.034Z,103667.00
2023-01-24T01:20:51.982Z,103648.66
2023-01-24T01:23:19.519Z,103656.31
2023-01-24T01:25:47.457Z,103661.34
2023-01-24T01:28:14.864Z,103664.78
2023-01-24T01:30:42.375Z,103672.66
2023-01-24T01:33:09.903Z,103676.22
2023-01-24T01:35:37.311Z,103667.59
2023-01-24T01:38:04.809Z,103678.72
2023-01-24T01:40:32.228Z,103674.13
2023-01-24T01:42:59.638Z,103672.25
2023-01-24T01:45:37.819Z,103671.38
2023-01-24T01:48:36.206Z,103669.66
2023-01-24T01:51:19.228Z,103675.59
2023-01-24T01:54:04.144Z,103670.47
2023-01-24T01:56:49.712Z,103668.03
2023-01-24T01:59:24.571Z,103667.06
2023-01-24T02:01:56.050Z,103669.56
2023-01-24T02:04:32.650Z,103672.19
2023-01-24T02:07:11.425Z,103666.09
2023-01-24T02:09:43.370Z,103667.63
2023-01-24T02:12:29.045Z,103665.03
2023-01-24T02:15:27.621Z,103665.13
2023-01-24T02:17:55.391Z,103665.03
2023-01-24T02:20:47.676Z,103665.88
2023-01-24T02:23:39.787Z,103660.59
2023-01-24T02:26:14.346Z,103664.91
2023-01-24T02:28:50.818Z,103658.78
2023-01-24T02:31:18.601Z,103660.28
2023-01-24T02:33:46.371Z,103655.66
2023-01-24T02:36:22.832Z,103656.53
2023-01-24T02:39:02.071Z,103655.53
2023-01-24T02:41:40.065Z,103659.66
2023-01-24T02:44:15.560Z,103665.75
2023-01-24T02:46:46.821Z,103667.44
2023-01-24T02:49:14.454Z,103677.00
2023-01-24T02:52:00.461Z,103663.22
2023-01-24T02:54:28.014Z,103662.41
2023-01-24T02:57:14.066Z,103665.16
2023-01-24T02:59:41.894Z,103662.34
2023-01-24T03:02:10.350Z,103664.94
2023-01-24T03:04:37.761Z,103657.81
2023-01-24T03:07:06.987Z,103655.22
2023-01-24T03:09:34.582Z,103652.66
2023-01-24T03:12:25.426Z,103661.44
2023-01-24T03:15:15.881Z,103656.09
2023-01-24T03:18:03.557Z,103656.09
2023-01-24T03:20:49.581Z,103654.28
2023-01-24T03:23:36.664Z,103652.34
2023-01-24T03:26:22.623Z,103651.38
2023-01-24T03:29:09.000Z,103652.13
2023-01-24T03:31:55.930Z,103649.38
2023-01-24T03:34:46.426Z,103651.03
2023-01-24T03:37:41.245Z,103646.38
2023-01-24T03:40:14.482Z,103649.72
2023-01-24T03:42:49.716Z,103651.50
2023-01-24T03:45:25.579Z,103653.34
2023-01-24T03:47:56.974Z,103650.75
2023-01-24T03:50:48.538Z,103659.47
2023-01-24T03:53:17.723Z,103656.59
2023-01-24T03:55:48.012Z,103655.81
2023-01-24T03:58:16.207Z,103654.97
2023-01-24T04:00:43.798Z,103660.03
2023-01-24T04:03:28.035Z,103654.84
2023-01-24T04:05:55.688Z,103658.22
2023-01-24T04:08:23.109Z,103648.59
2023-01-24T04:10:50.886Z,103651.91
2023-01-24T04:13:19.082Z,103652.88
2023-01-24T04:15:46.620Z,103654.66
2023-01-24T04:18:29.733Z,103650.38
2023-01-24T04:21:03.189Z,103664.34
2023-01-24T04:23:31.505Z,103655.50
2023-01-24T04:26:00.521Z,103658.09
2023-01-24T04:28:32.171Z,103664.72
2023-01-24T04:31:04.260Z,103652.56
2023-01-24T04:33:57.535Z,103655.25
2023-01-24T04:36:28.786Z,103659.72
2023-01-24T04:38:56.889Z,103656.28
2023-01-24T04:41:30.495Z,103660.59
2023-01-24T04:43:59.523Z,103670.88
2023-01-24T04:46:29.301Z,103660.44
2023-01-24T04:48:57.757Z,103667.41
2023-01-24T04:51:49.072Z,103670.84
2023-01-24T04:54:21.997Z,103667.41
2023-01-24T04:56:51.525Z,103670.00
2023-01-24T04:59:19.356Z,103669.22
2023-01-24T05:01:48.919Z,103671.81
2023-01-24T05:04:43.310Z,103665.78
2023-01-24T05:07:11.513Z,103666.66
2023-01-24T05:09:40.515Z,103661.25
2023-01-24T05:12:10.376Z,103661.97
2023-01-24T05:14:38.080Z,103661.00
2023-01-24T05:17:06.049Z,103661.00
2023-01-24T05:19:35.796Z,103658.50
2023-01-24T05:22:04.459Z,103665.47
2023-01-24T05:24:36.978Z,103669.91
2023-01-24T05:27:04.599Z,103678.53
2023-01-24T05:29:34.618Z,103676.72
2023-01-24T05:32:04.900Z,103674.09
2023-01-24T05:34:32.547Z,103676.59
2023-01-24T05:37:00.355Z,103689.56
2023-01-24T05:39:27.901Z,103683.31
2023-01-24T05:41:55.523Z,103679.84
2023-01-24T05:44:29.028Z,103685.13
2023-01-24T05:46:56.628Z,103686.78
2023-01-24T05:49:29.424Z,103686.66
2023-01-24T05:51:57.069Z,103689.72
2023-01-24T05:54:40.939Z,103687.75
2023-01-24T05:57:22.949Z,103692.16
2023-01-24T06:00:11.415Z,103698.31
2023-01-24T06:03:03.719Z,103700.91
2023-01-24T06:05:31.435Z,103695.72
2023-01-24T06:07:58.878Z,103706.09
2023-01-24T06:10:26.405Z,103701.72
2023-01-24T06:13:06.183Z,103706.00
2023-01-24T06:15:34.089Z,103700.81
2023-01-24T06:18:04.340Z,103704.25
2023-01-24T06:20:32.983Z,103704.25
2023-01-24T06:23:07.388Z,103707.81
2023-01-24T06:25:40.640Z,103706.84
2023-01-24T06:28:10.507Z,103706.09
2023-01-24T06:30:43.653Z,103705.13
2023-01-24T06:33:31.212Z,103712.72
2023-01-24T06:36:28.947Z,103713.47
2023-01-24T06:38:56.859Z,103720.19
2023-01-24T06:41:24.669Z,103726.34
2023-01-24T06:43:53.118Z,103721.34
2023-01-24T06:46:20.915Z,103717.91
2023-01-24T06:48:48.680Z,103718.75
2023-01-24T06:51:16.164Z,103712.41
2023-01-24T06:53:43.822Z,103719.22
2023-01-24T06:56:11.631Z,103713.88
2023-01-24T06:58:39.021Z,103721.66
2023-01-24T07:01:06.802Z,103724.25
2023-01-24T07:03:34.381Z,103720.78
2023-01-24T07:06:01.806Z,103733.81
2023-01-24T07:08:29.256Z,103730.22
2023-01-24T07:10:59.632Z,103741.69
2023-01-24T07:13:27.301Z,103739.00
2023-01-24T07:15:54.897Z,103746.78
2023-01-24T07:18:22.980Z,103742.41
2023-01-24T07:20:51.209Z,103750.19
2023-01-24T07:23:24.343Z,103744.81
2023-01-24T07:25:52.969Z,103756.03
2023-01-24T07:28:20.784Z,103759.25
2023-01-24T07:30:50.050Z,103760.00
2023-01-24T07:33:17.485Z,103758.28
2023-01-24T07:35:45.352Z,103766.94
2023-01-24T07:38:13.162Z,103772.22
2023-01-24T07:40:43.503Z,103761.03
2023-01-24T07:43:11.209Z,103766.06
2023-01-24T07:45:39.542Z,103764.19
2023-01-24T07:48:08.544Z,103765.97
2023-01-24T07:50:36.667Z,103776.59
2023-01-24T07:53:04.571Z,103774.97
2023-01-24T07:55:32.126Z,103770.72
2023-01-24T07:58:04.026Z,103772.38
2023-01-24T08:00:32.443Z,103764.44
2023-01-24T08:02:59.958Z,103778.94
2023-01-24T08:05:27.392Z,103783.25
2023-01-24T08:07:56.205Z,103780.75
2023-01-24T08:10:24.051Z,103779.81
2023-01-24T08:12:51.875Z,103781.44
2023-01-24T08:15:19.435Z,103778.84
2023-01-24T08:17:46.853Z,103789.16
2023-01-24T08:20:15.116Z,103789.31
2023-01-24T08:22:57.014Z,103784.31
2023-01-24T08:25:31.413Z,103792.00
2023-01-24T08:27:59.260Z,103796.13
2023-01-24T08:30:27.185Z,103790.94
2023-01-24T08:33:06.557Z,103795.38
2023-01-24T08:35:34.451Z,103788.53
2023-01-24T08:38:01.984Z,103795.56
2023-01-24T08:40:33.134Z,103790.53
2023-01-24T08:43:06.507Z,103806.31
2023-01-24T08:45:34.779Z,103812.63
2023-01-24T08:48:02.672Z,103811.84
2023-01-24T08:50:30.102Z,103817.91
2023-01-24T08:52:58.343Z,103810.22
2023-01-24T08:55:25.926Z,103810.22
2023-01-24T08:57:59.313Z,103808.59
2023-01-24T09:00:26.814Z,103812.00
2023-01-24T09:02:54.332Z,103817.28
2023-01-24T09:05:22.193Z,103815.56
2023-01-24T09:07:50.075Z,103818.16
2023-01-24T09:10:17.680Z,103814.13
2023-01-24T09:12:45.191Z,103821.03
2023-01-24T09:15:12.716Z,103819.88
2023-01-24T09:17:41.070Z,103825.88
2023-01-24T09:20:09.666Z,103826.78
2023-01-24T09:22:37.162Z,103823.28
2023-01-24T09:25:05.179Z,103832.94
2023-01-24T09:27:32.626Z,103823.63
2023-01-24T09:30:00.229Z,103824.63
2023-01-24T09:32:28.108Z,103820.56
2023-01-24T09:34:55.723Z,103820.56
2023-01-24T09:37:23.896Z,103832.75
2023-01-24T09:39:51.448Z,103822.41
2023-01-24T09:42:42.212Z,103821.78
2023-01-24T09:45:31.581Z,103818.28
2023-01-24T09:48:03.770Z,103824.22
2023-01-24T09:50:55.523Z,103831.81
2023-01-24T09:53:35.960Z,103834.34
2023-01-24T09:56:07.129Z,103834.25
2023-01-24T09:58:41.854Z,103839.22
2023-01-24T10:01:14.389Z,103836.41
2023-01-24T10:03:43.349Z,103841.50
2023-01-24T10:06:27.023Z,103838.22
2023-01-24T10:09:23.750Z,103842.84
2023-01-24T10:12:29.347Z,103842.19
2023-01-24T10:15:53.547Z,103843.19
2023-01-24T10:19:06.849Z,103838.28
2023-01-24T10:22:20.311Z,103834.13
2023-01-24T10:25:12.367Z,103841.13
2023-01-24T10:27:47.056Z,103846.41
2023-01-24T10:30:26.690Z,103847.44
2023-01-24T10:33:04.337Z,103846.66
2023-01-24T10:35:44.664Z,103835.44
2023-01-24T10:38:17.132Z,103852.56
2023-01-24T10:40:59.784Z,103838.34
2023-01-24T10:43:32.287Z,103848.56
2023-01-24T10:46:28.935Z,103840.94
2023-01-24T10:49:00.579Z,103835.09
2023-01-24T10:51:28.015Z,103834.13
2023-01-24T10:54:03.143Z,103834.41
2023-01-24T10:56:31.164Z,103835.53
2023-01-24T10:59:13.631Z,103840.25
2023-01-24T11:01:51.916Z,103837.56
2023-01-24T11:04:24.787Z,103831.50
2023-01-24T11:06:53.239Z,103824.75
2023-01-24T11:09:28.203Z,103822.31
2023-01-24T11:11:59.569Z,103817.22
2023-01-24T11:14:32.271Z,103820.06
2023-01-24T11:17:02.359Z,103819.31
2023-01-24T11:19:40.013Z,103815.09
2023-01-24T11:22:34.491Z,103821.28
2023-01-24T11:25:10.109Z,103818.69
2023-01-24T11:27:50.222Z,103814.47
2023-01-24T11:30:23.302Z,103807.56
2023-01-24T11:33:37.277Z,103816.25
2023-01-24T11:36:26.817Z,103808.38
2023-01-24T11:39:03.360Z,103805.88
2023-01-24T11:41:47.382Z,103806.75
2023-01-24T11:44:32.559Z,103797.25
2023-01-24T11:47:18.280Z,103792.88
2023-01-24T11:50:18.285Z,103795.47
2023-01-24T11:53:24.659Z,103793.13
2023-01-24T11:56:21.839Z,103782.97
2023-01-24T11:59:18.344Z,103787.41
2023-01-24T12:02:16.709Z,103782.31
2023-01-24T12:05:04.378Z,103782.97
2023-01-24T12:07:56.228Z,103775.25
2023-01-24T12:11:13.004Z,103765.84
2023-01-24T12:14:44.475Z,103765.84
2023-01-24T12:17:30.505Z,103757.81
2023-01-24T12:20:32.857Z,103755.59
2023-01-24T12:23:40.180Z,103753.41
2023-01-24T12:26:22.171Z,103744.50
2023-01-24T12:29:07.162Z,103749.69
2023-01-24T12:32:29.192Z,103752.22
2023-01-24T12:35:16.900Z,103751.38
2023-01-24T12:38:09.572Z,103741.81
2023-01-24T12:41:16.134Z,103746.84
2023-01-24T12:44:27.188Z,103741.59
2023-01-24T12:46:57.536Z,103737.19
2023-01-24T12:50:05.737Z,103728.84
2023-01-24T12:52:53.561Z,103728.00
2023-01-24T12:55:37.557Z,103725.59
2023-01-24T12:58:25.622Z,103723.13
2023-01-24T13:01:51.217Z,103720.06
2023-01-24T13:04:59.145Z,103721.19
2023-01-24T13:07:42.522Z,103719.63
2023-01-24T13:11:02.299Z,103728.56
2023-01-24T13:13:45.083Z,103723.44
2023-01-24T13:16:40.106Z,103731.41
2023-01-24T13:19:48.948Z,103734.09
2023-01-24T13:22:40.024Z,103727.59
2023-01-24T13:25:30.658Z,103722.00
2023-01-24T13:28:07.472Z,103721.84
2023-01-24T13:31:18.936Z,103719.31
2023-01-24T13:33:52.591Z,103710.66
2023-01-24T13:36:33.484Z,103710.97
2023-01-24T13:39:02.881Z,103710.31
2023-01-24T13:41:30.344Z,103712.38
2023-01-24T13:44:22.554Z,103715.06
2023-01-24T13:47:24.928Z,103709.88
2023-01-24T13:49:55.330Z,103719.81
2023-01-24T13:52:32.017Z,103715.19
2023-01-24T13:55:01.798Z,103705.13
2023-01-24T13:57:32.604Z,103712.69
2023-01-24T14:00:35.398Z,103705.78
2023-01-24T14:03:14.799Z,103708.16
2023-01-24T14:05:56.026Z,103711.44
2023-01-24T14:08:26.441Z,103714.06
2023-01-24T14:11:05.988Z,103714.97
2023-01-24T14:13:48.893Z,103714.69
2023-01-24T14:16:28.579Z,103710.25
2023-01-24T14:19:05.007Z,103708.47
2023-01-24T14:21:54.676Z,103710.16
2023-01-24T14:24:42.372Z,103703.09
2023-01-24T14:27:49.893Z,103713.72
2023-01-24T14:30:47.048Z,103709.69
2023-01-24T14:33:55.113Z,103715.75
2023-01-24T14:36:32.661Z,103719.09
2023-01-24T14:39:32.887Z,103718.44
2023-01-24T14:42:04.533Z,103716.72
2023-01-24T14:44:36.344Z,103720.31
2023-01-24T14:47:20.040Z,103720.97
2023-01-24T14:49:52.949Z,103719.19
2023-01-24T14:52:35.905Z,103724.63
2023-01-24T14:55:18.741Z,103722.16
2023-01-24T14:57:46.223Z,103731.66
2023-01-24T15:00:13.807Z,103725.81
2023-01-24T15:03:00.209Z,103724.94
2023-01-24T15:05:33.990Z,103730.88
2023-01-24T15:08:14.243Z,103731.56
2023-01-24T15:10:43.577Z,103730.59
2023-01-24T15:13:43.251Z,103722.66
2023-01-24T15:16:30.972Z,103724.13
2023-01-24T15:19:22.198Z,103722.16
2023-01-24T15:21:53.586Z,103724.63
2023-01-24T15:24:28.762Z,103723.78
2023-01-24T15:26:59.856Z,103721.03
2023-01-24T15:29:47.879Z,103722.66
2023-01-24T15:32:33.620Z,103721.50
2023-01-24T15:35:26.688Z,103722.97
2023-01-24T15:38:28.234Z,103721.91
2023-01-24T15:41:20.256Z,103723.44
2023-01-24T15:43:55.994Z,103720.69
2023-01-24T15:46:58.669Z,103718.91
2023-01-24T15:49:36.290Z,103720.53
2023-01-24T15:52:08.675Z,103714.28
2023-01-24T15:54:42.296Z,103719.22
2023-01-24T15:57:24.482Z,103712.88
2023-01-24T16:00:01.400Z,103712.88
2023-01-24T16:02:37.458Z,103722.28
2023-01-24T16:05:21.244Z,103718.09
2023-01-24T16:07:49.205Z,103714.66
2023-01-24T16:10:17.971Z,103719.16
2023-01-24T16:12:50.181Z,103717.53
2023-01-24T16:15:21.819Z,103722.78
2023-01-24T16:17:49.581Z,103715.00
2023-01-24T16:20:28.268Z,103725.47
2023-01-24T16:22:56.171Z,103720.13
2023-01-24T16:25:24.473Z,103728.78
2023-01-24T16:27:52.640Z,103726.09
2023-01-24T16:30:26.142Z,103729.44
2023-01-24T16:32:55.319Z,103725.88
2023-01-24T16:35:24.021Z,103728.56
2023-01-24T16:37:52.056Z,103725.13
2023-01-24T16:40:19.951Z,103731.31
2023-01-24T16:42:48.649Z,103732.38
2023-01-24T16:45:21.262Z,103740.16
2023-01-24T16:47:48.712Z,103730.56
2023-01-24T16:50:17.460Z,103734.13
2023-01-24T16:52:45.417Z,103728.06
2023-01-24T16:55:13.185Z,103733.34
2023-01-24T16:57:40.640Z,103740.31
2023-01-24T17:00:14.268Z,103737.72
2023-01-24T17:02:44.493Z,103730.75
2023-01-24T17:05:13.049Z,103731.53
2023-01-24T17:07:40.686Z,103731.53
2023-01-24T17:10:10.066Z,103733.34
2023-01-24T17:12:37.676Z,103732.50
2023-01-24T17:15:05.764Z,103736.03
2023-01-24T17:17:35.798Z,103733.44
2023-01-24T17:20:10.700Z,103731.63
2023-01-24T17:22:39.560Z,103729.03
2023-01-24T17:25:08.996Z,103718.66
2023-01-24T17:27:36.965Z,103724.72
2023-01-24T17:30:06.095Z,103717.78
2023-01-24T17:32:35.031Z,103722.00
2023-01-24T17:35:03.183Z,103724.50
2023-01-24T17:37:30.709Z,103718.31
2023-01-24T17:39:58.205Z,103723.50
2023-01-24T17:42:25.884Z,103722.63
2023-01-24T17:44:53.375Z,103722.72
2023-01-24T17:47:20.887Z,103721.81
2023-01-24T17:49:48.677Z,103722.72
2023-01-24T17:52:23.701Z,103730.41
2023-01-24T17:54:51.706Z,103725.97
2023-01-24T17:57:19.307Z,103728.56
2023-01-24T17:59:46.733Z,103737.22
2023-01-24T18:02:14.309Z,103732.75
2023-01-24T18:04:41.858Z,103730.88
2023-01-24T18:07:09.357Z,103726.41
2023-01-24T18:09:36.811Z,103722.84
2023-01-24T18:12:04.282Z,103727.94
2023-01-24T18:14:33.068Z,103722.59
2023-01-24T18:17:00.644Z,103725.00
2023-01-24T18:19:28.202Z,103717.16
2023-01-24T18:21:55.838Z,103716.25
2023-01-24T18:24:25.132Z,103716.34
2023-01-24T18:26:52.663Z,103714.47
2023-01-24T18:29:20.218Z,103725.81
2023-01-24T18:31:48.337Z,103729.50
2023-01-24T18:34:15.918Z,103719.19
2023-01-24T18:36:43.658Z,103723.56
2023-01-24T18:39:11.223Z,103719.38
2023-01-24T18:41:38.734Z,103725.53
2023-01-24T18:44:07.205Z,103729.75
2023-01-24T18:46:35.523Z,103723.81
2023-01-24T18:49:09.017Z,103719.50
2023-01-24T18:51:37.311Z,103727.28
2023-01-24T18:54:07.295Z,103720.34
2023-01-24T18:56:34.853Z,103734.19
2023-01-24T18:59:02.340Z,103717.75
2023-01-24T19:01:29.843Z,103722.94
2023-01-24T19:03:57.304Z,103722.75
2023-01-24T19:06:32.915Z,103725.44
2023-01-24T19:09:04.821Z,103725.53
2023-01-24T19:11:35.926Z,103721.22
2023-01-24T19:14:05.152Z,103722.94
2023-01-24T19:16:40.638Z,103722.94
2023-01-24T19:19:13.534Z,103721.88
2023-01-24T19:21:42.194Z,103726.91
2023-01-24T19:24:09.988Z,103726.97
2023-01-24T19:26:37.491Z,103724.31
2023-01-24T19:29:05.587Z,103722.41
2023-01-24T19:31:33.391Z,103715.34
2023-01-24T19:34:01.262Z,103720.44
2023-01-24T19:36:28.851Z,103723.88
2023-01-24T19:38:59.631Z,103725.56
2023-01-24T19:41:29.657Z,103721.09
2023-01-24T19:46:48.875Z,103719.97
2023-01-24T19:49:20.569Z,103718.78
2023-01-24T19:51:48.200Z,103721.75
2023-01-24T19:54:15.809Z,103723.47
2023-01-24T19:56:43.617Z,103715.84
2023-01-24T19:59:11.350Z,103717.81
2023-01-24T20:01:38.875Z,103724.06
2023-01-24T20:04:24.626Z,103728.53
2023-01-24T20:06:54.630Z,103714.56
2023-01-24T20:09:23.080Z,103719.84
2023-01-24T20:11:52.671Z,103715.66
2023-01-24T20:14:20.435Z,103720.09
2023-01-24T20:16:48.308Z,103729.69
2023-01-24T20:19:27.571Z,103731.41
2023-01-24T20:21:57.093Z,103732.28
2023-01-24T20:24:24.938Z,103730.66
2023-01-24T20:26:53.413Z,103731.56
2023-01-24T20:29:22.497Z,103722.97
2023-01-24T20:31:50.115Z,103732.44
2023-01-24T20:34:18.736Z,103729.69
2023-01-24T20:36:49.788Z,103732.28
2023-01-24T20:39:17.575Z,103732.19
2023-01-24T20:41:46.573Z,103728.72
2023-01-24T20:44:26.495Z,103732.09
2023-01-24T20:46:57.911Z,103733.00
2023-01-24T20:49:26.063Z,103745.00
2023-01-24T20:51:54.878Z,103739.72
2023-01-24T20:54:23.761Z,103729.44
2023-01-24T20:56:57.600Z,103731.06
2023-01-24T20:59:25.268Z,103740.50
2023-01-24T21:01:53.460Z,103730.13
2023-01-24T21:04:21.591Z,103732.38
2023-01-24T21:06:52.631Z,103733.22
2023-01-24T21:09:21.976Z,103738.94
2023-01-24T21:11:51.362Z,103738.03
2023-01-24T21:14:22.692Z,103738.94
2023-01-24T21:16:50.421Z,103738.94
2023-01-24T21:19:20.889Z,103725.88
2023-01-24T21:21:49.975Z,103730.38
2023-01-24T21:24:34.517Z,103722.66
2023-01-24T21:27:03.283Z,103714.06
2023-01-24T21:29:32.714Z,103726.22
2023-01-24T21:32:01.605Z,103728.03
2023-01-24T21:34:29.517Z,103728.75
2023-01-24T21:36:57.901Z,103736.34
2023-01-24T21:39:26.387Z,103734.28
2023-01-24T21:41:55.358Z,103727.06
2023-01-24T21:44:25.679Z,103722.56
2023-01-24T21:46:54.030Z,103722.56
2023-01-24T21:49:22.798Z,103722.69
2023-01-24T21:51:54.322Z,103725.47
2023-01-24T21:54:28.746Z,103719.53
2023-01-24T21:57:30.725Z,103715.34
2023-01-24T22:00:01.733Z,103717.13
2023-01-24T22:02:39.686Z,103713.00
2023-01-24T22:05:08.344Z,103715.69
2023-01-24T22:07:36.224Z,103715.69
2023-01-24T22:10:04.361Z,103717.41
2023-01-24T22:12:35.634Z,103708.53
2023-01-24T22:15:04.361Z,103704.97
2023-01-24T22:17:34.540Z,103708.53
2023-01-24T22:20:02.632Z,103701.84
2023-01-24T22:22:42.866Z,103708.91
2023-01-24T22:25:38.040Z,103706.44
2023-01-24T22:28:13.880Z,103713.88
2023-01-24T22:30:41.721Z,103705.22
2023-01-24T22:33:10.185Z,103712.13
2023-01-24T22:35:38.247Z,103714.47
2023-01-24T22:38:05.885Z,103714.16
2023-01-24T22:40:33.659Z,103710.34
2023-01-24T22:43:01.124Z,103710.25
2023-01-24T22:45:30.336Z,103712.06
2023-01-24T22:47:57.934Z,103715.53
2023-01-24T22:50:25.941Z,103715.63
2023-01-24T22:52:53.956Z,103708.56
2023-01-24T22:55:21.454Z,103700.44
2023-01-24T22:57:49.024Z,103702.94
2023-01-24T23:00:18.178Z,103695.91
2023-01-24T23:02:45.733Z,103700.88
2023-01-24T23:05:13.415Z,103691.06
2023-01-24T23:07:41.215Z,103693.47
2023-01-24T23:10:09.834Z,103686.34
2023-01-24T23:12:57.004Z,103678.31
2023-01-24T23:15:53.870Z,103677.03
2023-01-24T23:18:44.216Z,103678.63
2023-01-24T23:21:30.343Z,103665.69
2023-01-24T23:23:58.449Z,103667.50
2023-01-24T23:26:26.677Z,103656.31
2023-01-24T23:29:05.494Z,103660.84
2023-01-24T23:31:33.176Z,103659.88
2023-01-24T23:34:02.305Z,103652.31
2023-01-24T23:36:31.653Z,103642.81
2023-01-24T23:38:59.198Z,103652.47
2023-01-24T23:41:26.654Z,103652.66
2023-01-24T23:43:54.101Z,103652.75
2023-01-24T23:46:21.535Z,103647.56
2023-01-24T23:48:48.974Z,103642.28
2023-01-24T23:51:16.486Z,103632.81
2023-01-24T23:53:45.756Z,103629.44
2023-01-24T23:56:13.399Z,103626.91
2023-01-24T23:58:40.904Z,103631.28
